Time;durP1;ratioP1;P1;durP2;ratioP2;P2;SDS_P1;SDS_P2;PMS_P1;PMS_P2;Temp;Humidity;BMP_temperature;BMP_pressure;BME280_temperature;BME280_humidity;BME280_pressure;Samples;Min_cycle;Max_cycle;Signal;HPM_P1;HPM_P2
2023/07/08 00:01:19;;;;;;;4.28;3.88;;;;;;;;;;7300577;19;143009;-81
2023/07/08 00:03:47;;;;;;;4.15;3.83;;;;;;;;;;7300445;19;140805;-81
2023/07/08 00:06:19;;;;;;;4.18;3.78;;;;;;;;;;7301498;19;140835;-81
2023/07/08 00:08:46;;;;;;;4.20;3.80;;;;;;;;;;7299894;19;141246;-80
2023/07/08 00:11:14;;;;;;;4.47;3.80;;;;;;;;;;7300016;19;142835;-80
2023/07/08 00:13:41;;;;;;;3.90;3.60;;;;;;;;;;7301257;19;140797;-80
2023/07/08 00:16:12;;;;;;;4.38;3.72;;;;;;;;;;7300361;19;140413;-80
2023/07/08 00:18:40;;;;;;;4.20;3.80;;;;;;;;;;7300241;19;141010;-79
2023/07/08 00:21:15;;;;;;;4.22;3.83;;;;;;;;;;7300065;19;142021;-79
2023/07/08 00:23:46;;;;;;;3.72;3.40;;;;;;;;;;7300190;19;140320;-79
2023/07/08 00:26:18;;;;;;;4.07;3.55;;;;;;;;;;7299236;19;140795;-79
2023/07/08 00:28:45;;;;;;;5.13;3.88;;;;;;;;;;7298630;19;140649;-82
2023/07/08 00:31:13;;;;;;;3.70;3.40;;;;;;;;;;7300369;19;141970;-83
2023/07/08 00:33:41;;;;;;;4.20;3.80;;;;;;;;;;7300625;19;140645;-85
2023/07/08 00:36:11;;;;;;;3.72;3.42;;;;;;;;;;7307423;19;140533;-83
2023/07/08 00:38:38;;;;;;;;;;;;;;;;;;7307622;19;140982;-84
2023/07/08 00:41:11;;;;;;;4.05;3.58;;;;;;;;;;7305792;19;151800;-83
2023/07/08 00:43:38;;;;;;;4.93;3.58;;;;;;;;;;7307054;19;140508;-81
2023/07/08 00:46:23;;;;;;;3.38;3.08;;;;;;;;;;7307721;19;140660;-83
2023/07/08 00:48:53;;;;;;;3.67;3.30;;;;;;;;;;7306825;19;140632;-82
2023/07/08 00:51:21;;;;;;;3.70;3.40;;;;;;;;;;7306409;19;142211;-84
2023/07/08 00:53:48;;;;;;;4.03;3.63;;;;;;;;;;7306878;19;140604;-83
2023/07/08 00:56:22;;;;;;;3.67;3.38;;;;;;;;;;7305531;19;140647;-81
2023/07/08 00:58:56;;;;;;;3.67;3.38;;;;;;;;;;7305920;19;140598;-81
2023/07/08 01:01:24;;;;;;;4.63;3.33;;;;;;;;;;7306199;19;140841;-83
2023/07/08 01:03:57;;;;;;;3.63;3.30;;;;;;;;;;7307421;19;140333;-81
2023/07/08 01:06:31;;;;;;;3.63;3.33;;;;;;;;;;7306560;19;140728;-85
2023/07/08 01:09:04;;;;;;;3.78;3.45;;;;;;;;;;7306544;19;140892;-86
2023/07/08 01:11:32;;;;;;;3.47;3.17;;;;;;;;;;7305693;19;141805;-86
2023/07/08 01:14:01;;;;;;;4.03;3.42;;;;;;;;;;7307365;19;140835;-86
2023/07/08 01:16:28;;;;;;;4.20;3.60;;;;;;;;;;7306468;19;140687;-82
2023/07/08 01:18:56;;;;;;;3.78;3.40;;;;;;;;;;7305351;19;141084;-83
2023/07/08 01:21:37;;;;;;;3.55;3.25;;;;;;;;;;7305991;19;141910;-83
2023/07/08 01:24:05;;;;;;;3.92;3.60;;;;;;;;;;7305660;19;140479;-82
2023/07/08 01:26:34;;;;;;;3.70;3.40;;;;;;;;;;7305127;19;140550;-83
2023/07/08 01:29:02;;;;;;;3.53;3.10;;;;;;;;;;7305382;19;140858;-83
2023/07/08 01:31:30;;;;;;;3.50;3.20;;;;;;;;;;7305341;19;142021;-85
2023/07/08 01:33:57;;;;;;;3.75;3.45;;;;;;;;;;7305390;19;140567;-85
2023/07/08 01:36:26;;;;;;;3.50;3.20;;;;;;;;;;7303827;19;140593;-83
2023/07/08 01:38:53;;;;;;;3.50;3.20;;;;;;;;;;7305360;19;141168;-84
2023/07/08 01:41:22;;;;;;;3.08;2.88;;;;;;;;;;7303085;19;142013;-84
2023/07/08 01:43:51;;;;;;;3.58;3.28;;;;;;;;;;7305510;19;140674;-84
2023/07/08 01:46:21;;;;;;;3.80;3.40;;;;;;;;;;7304653;19;140745;-85
2023/07/08 01:48:53;;;;;;;3.60;3.30;;;;;;;;;;7304752;19;141238;-85
2023/07/08 01:51:21;;;;;;;4.05;3.22;;;;;;;;;;7304877;19;142772;-84
2023/07/08 01:53:49;;;;;;;3.63;3.33;;;;;;;;;;7305303;19;140849;-85
2023/07/08 01:56:16;;;;;;;3.63;3.33;;;;;;;;;;7303977;19;141143;-88
2023/07/08 01:58:43;;;;;;;3.42;3.13;;;;;;;;;;7306468;19;140960;-92
2023/07/08 02:01:10;;;;;;;3.60;3.30;;;;;;;;;;7305060;19;140765;-91
2023/07/08 02:03:38;;;;;;;3.38;3.08;;;;;;;;;;7307041;19;140449;-92
2023/07/08 02:06:08;;;;;;;3.35;3.05;;;;;;;;;;7306429;19;140430;-90
2023/07/08 02:08:35;;;;;;;3.58;3.28;;;;;;;;;;7305985;19;141199;-90
2023/07/08 02:11:03;;;;;;;3.08;2.80;;;;;;;;;;7305546;19;140507;-92
2023/07/08 02:13:30;;;;;;;3.53;3.22;;;;;;;;;;7305990;19;140521;-93
2023/07/08 02:15:57;;;;;;;3.35;3.05;;;;;;;;;;7306640;19;140351;-93
2023/07/08 02:18:24;;;;;;;3.75;2.92;;;;;;;;;;7306462;19;141626;-90
2023/07/08 02:20:51;;;;;;;3.30;3.00;;;;;;;;;;7305198;19;140649;-90
2023/07/08 02:23:19;;;;;;;3.25;2.95;;;;;;;;;;7304889;19;140736;-90
2023/07/08 02:25:56;;;;;;;3.45;3.10;;;;;;;;;;7305046;19;140530;-85
2023/07/08 02:28:23;;;;;;;3.20;2.90;;;;;;;;;;7304261;19;140390;-88
2023/07/08 02:30:50;;;;;;;3.83;3.05;;;;;;;;;;7301689;19;141643;-88
2023/07/08 02:33:17;;;;;;;3.42;3.10;;;;;;;;;;7304375;19;140693;-87
2023/07/08 02:35:45;;;;;;;3.30;3.00;;;;;;;;;;7304460;19;140560;-87
2023/07/08 02:38:12;;;;;;;3.05;2.75;;;;;;;;;;7304086;19;141282;-86
2023/07/08 02:40:39;;;;;;;3.05;2.83;;;;;;;;;;7306045;19;141918;-87
2023/07/08 02:43:06;;;;;;;3.65;3.05;;;;;;;;;;7304257;19;141547;-88
2023/07/08 02:45:33;;;;;;;3.33;3.03;;;;;;;;;;7303703;19;141108;-87
2023/07/08 02:48:00;;;;;;;3.47;3.17;;;;;;;;;;7303784;19;141807;-88
2023/07/08 02:50:28;;;;;;;3.38;3.08;;;;;;;;;;7302278;19;141833;-90
2023/07/08 02:52:55;;;;;;;2.63;2.42;;;;;;;;;;7304310;19;140400;-88
2023/07/08 02:55:22;;;;;;;3.20;2.90;;;;;;;;;;7303045;19;140925;-88
2023/07/08 02:57:49;;;;;;;3.35;3.05;;;;;;;;;;7300342;19;141181;-89
2023/07/08 03:00:16;;;;;;;3.13;2.92;;;;;;;;;;7303619;19;142546;-88
2023/07/08 03:02:44;;;;;;;3.15;2.85;;;;;;;;;;7303632;19;140694;-89
2023/07/08 03:05:12;;;;;;;2.80;2.60;;;;;;;;;;7303253;19;140634;-90
2023/07/08 03:07:39;;;;;;;3.95;3.05;;;;;;;;;;7303054;19;141024;-90
2023/07/08 03:10:06;;;;;;;2.80;2.60;;;;;;;;;;7302665;19;142703;-84
2023/07/08 03:12:33;;;;;;;2.80;2.60;;;;;;;;;;7301651;19;140561;-85
2023/07/08 03:15:00;;;;;;;2.92;2.65;;;;;;;;;;7302216;19;140493;-86
2023/07/08 03:17:27;;;;;;;3.22;2.67;;;;;;;;;;7302349;19;142044;-84
2023/07/08 03:19:54;;;;;;;3.42;3.13;;;;;;;;;;7299904;19;142596;-85
2023/07/08 03:22:21;;;;;;;4.32;3.08;;;;;;;;;;7302550;19;140625;-84
2023/07/08 03:24:48;;;;;;;2.85;2.58;;;;;;;;;;7302369;19;140456;-84
2023/07/08 03:27:16;;;;;;;2.70;2.50;;;;;;;;;;7300498;19;140854;-84
2023/07/08 03:29:43;;;;;;;2.90;2.70;;;;;;;;;;7301676;19;142906;-84
2023/07/08 03:32:11;;;;;;;3.05;2.70;;;;;;;;;;7299934;19;140624;-84
2023/07/08 03:34:38;;;;;;;3.10;2.80;;;;;;;;;;7301725;19;140589;-84
2023/07/08 03:37:05;;;;;;;2.55;2.35;;;;;;;;;;7302121;19;141816;-86
2023/07/08 03:39:32;;;;;;;3.03;2.70;;;;;;;;;;7301696;19;141552;-84
2023/07/08 03:42:00;;;;;;;2.78;2.58;;;;;;;;;;7301539;19;141238;-88
2023/07/08 03:44:27;;;;;;;2.92;2.60;;;;;;;;;;7300460;19;140565;-83
2023/07/08 03:46:54;;;;;;;2.92;2.72;;;;;;;;;;7300960;19;141443;-83
2023/07/08 03:49:23;;;;;;;2.67;2.47;;;;;;;;;;7300328;19;141857;-82
2023/07/08 03:51:51;;;;;;;3.00;2.80;;;;;;;;;;7300194;19;140774;-82
2023/07/08 03:54:19;;;;;;;2.75;2.55;;;;;;;;;;7300910;19;140615;-82
2023/07/08 03:56:46;;;;;;;2.80;2.60;;;;;;;;;;7299224;19;141220;-82
2023/07/08 03:59:13;;;;;;;2.92;2.70;;;;;;;;;;7299211;19;141831;-81
2023/07/08 04:01:41;;;;;;;3.08;2.80;;;;;;;;;;7301354;19;140802;-83
2023/07/08 04:04:10;;;;;;;2.55;2.35;;;;;;;;;;7297991;19;140506;-82
2023/07/08 04:06:37;;;;;;;2.92;2.72;;;;;;;;;;7300379;19;141846;-82
2023/07/08 04:09:04;;;;;;;2.67;2.47;;;;;;;;;;7299643;19;143132;-87
2023/07/08 04:11:31;;;;;;;3.40;2.63;;;;;;;;;;7300086;19;140544;-85
2023/07/08 04:13:58;;;;;;;2.70;2.50;;;;;;;;;;7299369;19;141452;-86
2023/07/08 04:16:29;;;;;;;2.58;2.38;;;;;;;;;;7298261;19;141226;-81
2023/07/08 04:18:57;;;;;;;2.90;2.70;;;;;;;;;;7297296;19;142336;-83
2023/07/08 04:21:27;;;;;;;2.90;2.70;;;;;;;;;;7300493;19;140672;-86
2023/07/08 04:23:54;;;;;;;2.55;2.30;;;;;;;;;;7299999;19;140643;-86
2023/07/08 04:26:21;;;;;;;2.70;2.50;;;;;;;;;;7302349;19;140878;-86
2023/07/08 04:28:49;;;;;;;2.95;2.75;;;;;;;;;;7302863;19;141703;-91
2023/07/08 04:31:17;;;;;;;2.83;2.63;;;;;;;;;;7302286;19;140513;-90
2023/07/08 04:33:46;;;;;;;3.45;3.15;;;;;;;;;;7309416;19;140376;-90
2023/07/08 04:36:14;;;;;;;3.97;3.55;;;;;;;;;;7300764;19;141086;-90
2023/07/08 04:38:41;;;;;;;4.55;3.60;;;;;;;;;;7298931;19;142029;-89
2023/07/08 04:41:08;;;;;;;4.53;3.65;;;;;;;;;;7305363;19;140420;-89
2023/07/08 04:43:35;;;;;;;4.55;3.58;;;;;;;;;;7302083;19;140512;-81
2023/07/08 04:46:04;;;;;;;4.03;3.60;;;;;;;;;;7299914;19;140965;-88
2023/07/08 04:48:32;;;;;;;4.03;3.50;;;;;;;;;;7301104;19;140821;-87
2023/07/08 04:50:59;;;;;;;4.35;3.55;;;;;;;;;;7301472;19;140502;-88
2023/07/08 04:53:27;;;;;;;5.35;3.58;;;;;;;;;;7300335;19;140485;-85
2023/07/08 04:55:55;;;;;;;7.07;3.67;;;;;;;;;;7299446;19;140945;-89
2023/07/08 04:58:22;;;;;;;3.88;3.30;;;;;;;;;;7298586;19;142602;-90
2023/07/08 05:00:50;;;;;;;5.15;3.40;;;;;;;;;;7298064;19;140596;-85
2023/07/08 05:03:17;;;;;;;3.30;3.00;;;;;;;;;;7298447;19;140883;-86
2023/07/08 05:05:44;;;;;;;4.07;3.33;;;;;;;;;;7299680;19;140995;-88
2023/07/08 05:08:12;;;;;;;4.80;3.20;;;;;;;;;;7305840;19;142613;-94
2023/07/08 05:10:39;;;;;;;3.72;3.00;;;;;;;;;;7301752;19;140483;-91
2023/07/08 05:13:06;;;;;;;3.08;2.78;;;;;;;;;;7302177;19;140510;-89
2023/07/08 05:15:33;;;;;;;4.85;3.20;;;;;;;;;;7299359;19;141332;-90
2023/07/08 05:18:00;;;;;;;3.53;3.22;;;;;;;;;;7300466;19;141916;-89
2023/07/08 05:20:28;;;;;;;4.38;3.25;;;;;;;;;;7302412;19;140378;-96
2023/07/08 05:22:55;;;;;;;3.90;3.22;;;;;;;;;;7309072;19;140620;-86
2023/07/08 05:25:22;;;;;;;3.20;2.90;;;;;;;;;;7305180;19;140939;-88
2023/07/08 05:27:49;;;;;;;3.25;2.75;;;;;;;;;;7305172;19;140749;-85
2023/07/08 05:30:17;;;;;;;3.70;2.95;;;;;;;;;;7306287;19;140498;-89
2023/07/08 05:32:45;;;;;;;3.20;2.90;;;;;;;;;;7304699;19;140729;-88
2023/07/08 05:35:12;;;;;;;2.70;2.50;;;;;;;;;;7305921;19;141159;-87
2023/07/08 05:37:39;;;;;;;3.50;2.70;;;;;;;;;;7306030;19;140757;-86
2023/07/08 05:40:09;;;;;;;2.80;2.38;;;;;;;;;;7306518;19;140473;-90
2023/07/08 05:42:36;;;;;;;2.95;2.65;;;;;;;;;;7304621;19;140642;-80
2023/07/08 05:45:06;;;;;;;3.03;2.70;;;;;;;;;;7305071;19;140494;-80
2023/07/08 05:47:33;;;;;;;3.27;2.73;;;;;;;;;;7305043;19;142630;-80
2023/07/08 05:50:01;;;;;;;3.90;2.70;;;;;;;;;;7304413;19;140544;-81
2023/07/08 05:52:28;;;;;;;3.08;2.78;;;;;;;;;;7302566;19;140549;-83
2023/07/08 05:54:55;;;;;;;3.00;2.55;;;;;;;;;;7303559;19;141029;-81
2023/07/08 05:57:23;;;;;;;2.63;2.40;;;;;;;;;;7304131;19;141984;-84
2023/07/08 05:59:50;;;;;;;2.95;2.42;;;;;;;;;;7304484;19;140663;-82
2023/07/08 06:02:19;;;;;;;2.40;2.20;;;;;;;;;;7304096;19;140600;-80
2023/07/08 06:04:46;;;;;;;3.45;2.47;;;;;;;;;;7303341;19;141127;-80
2023/07/08 06:07:13;;;;;;;2.70;2.50;;;;;;;;;;7303123;19;141917;-80
2023/07/08 06:09:40;;;;;;;2.53;2.33;;;;;;;;;;7304585;19;140506;-84
2023/07/08 06:12:07;;;;;;;2.50;2.30;;;;;;;;;;7304866;19;140620;-89
2023/07/08 06:14:35;;;;;;;2.58;2.35;;;;;;;;;;7304455;19;141833;-86
2023/07/08 06:17:03;;;;;;;2.30;2.10;;;;;;;;;;7305474;19;141122;-91
2023/07/08 06:19:32;;;;;;;2.30;2.10;;;;;;;;;;7303721;19;140480;-87
2023/07/08 06:21:59;;;;;;;2.58;2.38;;;;;;;;;;7305521;19;141242;-90
2023/07/08 06:24:47;;;;;;;2.50;2.30;;;;;;;;;;7308319;19;141501;-94
2023/07/08 06:27:14;;;;;;;2.70;2.50;;;;;;;;;;7321706;19;140842;-89
2023/07/08 06:29:41;;;;;;;2.58;2.03;;;;;;;;;;7304349;19;140590;-88
2023/07/08 06:32:09;;;;;;;2.50;2.30;;;;;;;;;;7305795;19;140379;-92
2023/07/08 06:34:36;;;;;;;2.55;2.35;;;;;;;;;;7311904;19;142759;-91
2023/07/08 06:37:03;;;;;;;2.30;2.10;;;;;;;;;;7305373;19;140852;-93
2023/07/08 06:39:32;;;;;;;2.83;2.15;;;;;;;;;;7303203;19;140654;-86
2023/07/08 06:41:59;;;;;;;2.42;2.22;;;;;;;;;;7301884;19;140469;-86
2023/07/08 06:44:26;;;;;;;2.17;2.08;;;;;;;;;;7309795;19;141037;-95
2023/07/08 06:46:53;;;;;;;2.28;2.08;;;;;;;;;;7317694;19;141868;-96
2023/07/08 06:49:26;;;;;;;2.30;2.10;;;;;;;;;;7302572;19;140394;-90
2023/07/08 06:51:53;;;;;;;2.15;1.98;;;;;;;;;;7304339;19;140595;-92
2023/07/08 06:54:20;;;;;;;2.05;1.80;;;;;;;;;;7301343;19;142373;-78
2023/07/08 06:56:47;;;;;;;3.67;2.63;;;;;;;;;;7301955;19;142722;-78
2023/07/08 06:59:14;;;;;;;4.18;3.10;;;;;;;;;;7302070;19;140603;-79
2023/07/08 07:01:41;;;;;;;5.60;4.03;;;;;;;;;;7302678;19;140585;-79
2023/07/08 07:04:08;;;;;;;8.80;4.93;;;;;;;;;;7301611;19;141495;-79
2023/07/08 07:06:35;;;;;;;8.88;4.90;;;;;;;;;;7302448;19;142745;-77
2023/07/08 07:09:03;;;;;;;7.90;4.72;;;;;;;;;;7302454;19;140552;-76
2023/07/08 07:11:35;;;;;;;6.30;4.18;;;;;;;;;;7301885;19;140470;-76
2023/07/08 07:14:04;;;;;;;7.00;4.43;;;;;;;;;;7300234;19;140664;-76
2023/07/08 07:16:51;;;;;;;5.30;4.07;;;;;;;;;;7301811;19;145242;-76
2023/07/08 07:19:34;;;;;;;5.20;4.25;;;;;;;;;;7302126;19;140527;-76
2023/07/08 07:22:01;;;;;;;7.30;4.25;;;;;;;;;;7302242;19;140743;-76
2023/07/08 07:24:29;;;;;;;6.93;4.38;;;;;;;;;;7301482;19;140853;-76
2023/07/08 07:26:56;;;;;;;6.03;3.97;;;;;;;;;;7301549;19;142015;-76
2023/07/08 07:29:23;;;;;;;5.90;3.70;;;;;;;;;;7299470;19;140870;-76
2023/07/08 07:31:51;;;;;;;4.88;3.70;;;;;;;;;;7301379;19;141305;-78
2023/07/08 07:34:21;;;;;;;6.40;4.65;;;;;;;;;;7300814;19;140939;-80
2023/07/08 07:36:48;;;;;;;5.68;4.60;;;;;;;;;;7301670;19;141776;-78
2023/07/08 07:39:15;;;;;;;6.90;4.93;;;;;;;;;;7303327;19;140538;-78
2023/07/08 07:41:55;;;;;;;;;;;;;;;;;;;;;
2023/07/08 07:44:38;;;;;;;7.18;4.72;;;;;;;;;;7303611;19;141001;-79
2023/07/08 07:47:06;;;;;;;6.38;4.80;;;;;;;;;;7304056;19;141923;-80
2023/07/08 07:49:36;;;;;;;7.90;4.60;;;;;;;;;;7305873;19;140769;-79
2023/07/08 07:52:03;;;;;;;7.47;4.60;;;;;;;;;;7305223;19;140842;-80
2023/07/08 07:54:30;;;;;;;6.00;4.57;;;;;;;;;;7305546;19;142047;-79
2023/07/08 07:56:57;;;;;;;6.57;4.78;;;;;;;;;;7303639;19;142700;-78
2023/07/08 07:59:24;;;;;;;6.15;4.68;;;;;;;;;;7305361;19;140647;-83
2023/07/08 08:01:51;;;;;;;7.93;5.10;;;;;;;;;;7302422;19;140446;-80
2023/07/08 08:04:19;;;;;;;8.52;5.07;;;;;;;;;;7304701;19;141227;-79
2023/07/08 08:06:47;;;;;;;8.00;5.03;;;;;;;;;;7304686;19;142063;-78
2023/07/08 08:09:14;;;;;;;8.50;4.82;;;;;;;;;;7305089;19;140642;-86
2023/07/08 08:11:41;;;;;;;6.85;4.97;;;;;;;;;;7304706;19;140462;-80
2023/07/08 08:14:08;;;;;;;11.43;4.90;;;;;;;;;;7302638;19;142563;-78
2023/07/08 08:16:36;;;;;;;11.35;4.80;;;;;;;;;;7303749;19;140803;-80
2023/07/08 08:19:03;;;;;;;5.10;4.25;;;;;;;;;;7304922;19;140474;-78
2023/07/08 08:21:34;;;;;;;5.57;4.57;;;;;;;;;;7303696;19;141128;-80
2023/07/08 08:24:01;;;;;;;7.10;4.60;;;;;;;;;;7301816;19;140723;-79
2023/07/08 08:26:28;;;;;;;7.90;4.53;;;;;;;;;;7304708;19;142101;-79
2023/07/08 08:28:55;;;;;;;8.88;4.55;;;;;;;;;;7301402;19;140546;-81
2023/07/08 08:31:22;;;;;;;8.63;4.30;;;;;;;;;;7302016;19;140511;-79
2023/07/08 08:33:51;;;;;;;8.50;4.45;;;;;;;;;;7303709;19;141186;-78
2023/07/08 08:36:18;;;;;;;7.90;4.47;;;;;;;;;;7303043;19;142969;-78
2023/07/08 08:38:45;;;;;;;7.13;4.38;;;;;;;;;;7303940;19;140471;-78
2023/07/08 08:41:13;;;;;;;6.97;4.38;;;;;;;;;;7303845;19;140843;-79
2023/07/08 08:43:41;;;;;;;9.07;4.50;;;;;;;;;;7303699;19;141793;-84
2023/07/08 08:46:27;;;;;;;6.55;4.22;;;;;;;;;;7301893;19;142302;-85
2023/07/08 08:49:13;;;;;;;7.57;4.45;;;;;;;;;;7302609;19;140609;-87
2023/07/08 08:51:40;;;;;;;6.18;4.18;;;;;;;;;;7307307;19;140358;-96
2023/07/08 08:54:07;;;;;;;5.43;3.95;;;;;;;;;;7316947;19;141158;-91
2023/07/08 08:56:39;;;;;;;7.97;4.15;;;;;;;;;;7309362;19;141186;-92
2023/07/08 08:59:09;;;;;;;6.50;4.55;;;;;;;;;;7308302;19;140336;-87
2023/07/08 09:01:37;;;;;;;5.03;4.10;;;;;;;;;;7311646;19;140980;-93
2023/07/08 09:04:24;;;;;;;5.68;4.15;;;;;;;;;;7309380;19;140609;-80
2023/07/08 09:08:00;;;;;;;10.00;4.53;;;;;;;;;;7340950;19;140819;-80
2023/07/08 09:11:00;;;;;;;6.07;4.03;;;;;;;;;;7334352;19;142257;-78
2023/07/08 09:13:30;;;;;;;8.60;4.88;;;;;;;;;;7334830;19;140615;-78
2023/07/08 09:16:06;;;;;;;9.68;4.05;;;;;;;;;;7334774;19;140840;-74
2023/07/08 09:18:52;;;;;;;6.40;3.85;;;;;;;;;;7336105;19;140317;-74
2023/07/08 09:21:22;;;;;;;7.90;4.03;;;;;;;;;;7336072;19;140385;-75
2023/07/08 09:27:07;;;;;;;6.38;3.88;;;;;;;;;;7336117;19;141067;-76
2023/07/08 09:29:37;;;;;;;6.10;3.47;;;;;;;;;;7333525;19;140948;-81
2023/07/08 09:32:24;;;;;;;4.68;3.88;;;;;;;;;;7334343;19;141299;-78
2023/07/08 09:35:01;;;;;;;5.75;3.83;;;;;;;;;;7336384;19;141118;-78
2023/07/08 09:37:30;;;;;;;5.13;3.63;;;;;;;;;;7334563;19;141610;-79
2023/07/08 09:39:58;;;;;;;6.28;3.85;;;;;;;;;;7335200;19;140748;-78
2023/07/08 09:42:28;;;;;;;4.63;3.83;;;;;;;;;;7335757;19;140397;-78
2023/07/08 09:44:57;;;;;;;3.92;3.50;;;;;;;;;;7332770;19;141207;-78
2023/07/08 09:47:30;;;;;;;4.75;3.60;;;;;;;;;;7334849;19;141595;-77
2023/07/08 09:49:57;;;;;;;4.50;3.78;;;;;;;;;;7333430;19;140564;-77
2023/07/08 09:52:25;;;;;;;4.88;3.63;;;;;;;;;;7335211;19;140954;-78
2023/07/08 09:54:52;;;;;;;4.35;3.40;;;;;;;;;;7335174;19;140533;-78
2023/07/08 09:57:19;;;;;;;6.53;3.55;;;;;;;;;;7341178;19;142025;-77
2023/07/08 09:59:47;;;;;;;4.13;3.72;;;;;;;;;;7339741;19;141133;-78
2023/07/08 10:02:37;;;;;;;3.90;3.53;;;;;;;;;;7338409;19;141035;-77
2023/07/08 10:05:04;;;;;;;;;;;;;;;;;;7338947;19;140794;-77
2023/07/08 10:07:31;;;;;;;3.90;3.42;;;;;;;;;;7336430;19;151641;-76
2023/07/08 10:10:01;;;;;;;5.07;3.45;;;;;;;;;;7336680;19;140753;-77
2023/07/08 10:12:30;;;;;;;3.80;3.40;;;;;;;;;;7335414;19;140659;-77
2023/07/08 10:14:59;;;;;;;4.90;3.60;;;;;;;;;;7333926;19;141168;-76
2023/07/08 10:17:26;;;;;;;5.10;3.60;;;;;;;;;;7326158;19;142632;-79
2023/07/08 10:21:13;;;;;;;5.50;3.72;;;;;;;;;;7341255;19;140720;-80
2023/07/08 10:23:40;;;;;;;;;;;;;;;;;;7338139;19;140630;-86
2023/07/08 10:26:14;;;;;;;8.27;4.00;;;;;;;;;;7334984;19;150576;-84
2023/07/08 10:28:48;;;;;;;7.55;4.10;;;;;;;;;;7336364;19;140832;-82
2023/07/08 10:31:35;;;;;;;5.53;3.83;;;;;;;;;;7335667;19;140658;-84
2023/07/08 10:34:05;;;;;;;9.90;4.03;;;;;;;;;;7336415;19;140701;-84
2023/07/08 10:36:41;;;;;;;6.50;3.78;;;;;;;;;;7336648;19;140984;-83
2023/07/08 10:39:17;;;;;;;6.00;3.83;;;;;;;;;;7336260;19;140938;-81
2023/07/08 10:41:51;;;;;;;8.68;3.97;;;;;;;;;;7336010;19;140928;-83
2023/07/08 10:44:18;;;;;;;8.50;4.40;;;;;;;;;;7333850;19;140559;-82
2023/07/08 10:46:57;;;;;;;5.85;3.90;;;;;;;;;;7336004;19;142199;-82
2023/07/08 10:49:32;;;;;;;7.40;3.95;;;;;;;;;;7335912;19;141447;-80
2023/07/08 10:52:17;;;;;;;8.20;3.55;;;;;;;;;;7336480;19;140591;-81
2023/07/08 10:54:47;;;;;;;6.55;3.83;;;;;;;;;;7339910;19;140908;-80
2023/07/08 10:57:33;;;;;;;5.80;3.67;;;;;;;;;;7340082;19;140607;-80
2023/07/08 11:00:00;;;;;;;6.07;3.83;;;;;;;;;;7339920;19;141952;-89
2023/07/08 11:02:46;;;;;;;7.78;3.70;;;;;;;;;;7341358;19;140511;-83
2023/07/08 11:05:22;;;;;;;6.80;4.00;;;;;;;;;;7338805;19;140825;-84
2023/07/08 11:07:58;;;;;;;7.80;3.80;;;;;;;;;;7339093;19;141775;-79
2023/07/08 11:10:29;;;;;;;6.25;3.65;;;;;;;;;;7339129;19;142489;-86
2023/07/08 11:13:05;;;;;;;5.18;3.70;;;;;;;;;;7338541;19;140692;-78
2023/07/08 11:15:54;;;;;;;5.95;4.00;;;;;;;;;;7333677;19;140589;-79
2023/07/08 11:18:27;;;;;;;5.53;3.83;;;;;;;;;;7336397;19;141327;-82
2023/07/08 11:21:00;;;;;;;5.82;3.65;;;;;;;;;;7338781;19;140771;-79
2023/07/08 11:23:27;;;;;;;4.35;3.50;;;;;;;;;;7337278;19;140650;-77
2023/07/08 11:26:02;;;;;;;5.32;3.67;;;;;;;;;;7339035;19;140456;-79
2023/07/08 11:28:29;;;;;;;5.18;3.63;;;;;;;;;;7337585;19;140505;-78
2023/07/08 11:30:58;;;;;;;4.80;3.33;;;;;;;;;;7326913;19;142047;-78
2023/07/08 11:33:26;;;;;;;5.87;3.37;;;;;;;;;;7308611;19;140473;-81
2023/07/08 11:35:58;;;;;;;5.72;3.65;;;;;;;;;;7304269;19;140551;-79
2023/07/08 11:38:25;;;;;;;5.35;4.60;;;;;;;;;;7303772;19;142338;-83
2023/07/08 11:41:00;;;;;;;10.25;5.30;;;;;;;;;;7307420;19;142645;-76
2023/07/08 11:43:33;;;;;;;12.02;7.32;;;;;;;;;;7308196;19;140611;-79
2023/07/08 11:46:04;;;;;;;17.88;11.50;;;;;;;;;;7307716;19;140601;-79
2023/07/08 11:48:35;;;;;;;25.70;16.83;;;;;;;;;;7308644;19;141909;-79
2023/07/08 11:51:06;;;;;;;37.55;17.63;;;;;;;;;;7306262;19;141835;-78
2023/07/08 11:53:38;;;;;;;39.75;20.63;;;;;;;;;;7307530;19;141230;-78
2023/07/08 11:56:24;;;;;;;44.83;24.05;;;;;;;;;;7306876;19;140606;-78
2023/07/08 11:58:59;;;;;;;54.20;24.75;;;;;;;;;;7303486;19;140966;-78
2023/07/08 12:01:28;;;;;;;48.08;24.48;;;;;;;;;;7304569;19;140848;-79
2023/07/08 12:04:17;;;;;;;47.78;25.27;;;;;;;;;;7306135;19;140500;-79
2023/07/08 12:06:48;;;;;;;52.10;27.08;;;;;;;;;;7310498;19;141401;-79
2023/07/08 12:09:15;;;;;;;46.38;25.02;;;;;;;;;;7305389;19;140530;-79
2023/07/08 12:11:47;;;;;;;51.60;24.75;;;;;;;;;;7307364;19;141732;-78
2023/07/08 12:14:14;;;;;;;48.38;25.27;;;;;;;;;;7306681;19;140621;-81
2023/07/08 12:16:42;;;;;;;51.65;24.67;;;;;;;;;;7303922;19;140409;-80
2023/07/08 12:19:13;;;;;;;48.80;23.92;;;;;;;;;;7302009;19;140822;-81
2023/07/08 12:21:41;;;;;;;48.65;25.20;;;;;;;;;;7306237;19;141926;-84
2023/07/08 12:24:12;;;;;;;48.33;24.70;;;;;;;;;;7305188;19;140487;-93
2023/07/08 12:26:40;;;;;;;48.13;23.67;;;;;;;;;;7303281;19;140700;-92
2023/07/08 12:29:10;;;;;;;45.53;23.13;;;;;;;;;;7309457;19;140654;-91
2023/07/08 12:31:38;;;;;;;46.58;22.75;;;;;;;;;;7311029;19;140688;-93
2023/07/08 12:34:10;;;;;;;41.78;22.77;;;;;;;;;;7313192;19;140437;-94
2023/07/08 12:36:37;;;;;;;45.55;22.02;;;;;;;;;;7306529;19;140183;-89
2023/07/08 12:39:04;;;;;;;42.47;22.23;;;;;;;;;;7306532;19;140868;-91
2023/07/08 12:41:33;;;;;;;42.45;20.80;;;;;;;;;;7307050;19;142536;-87
2023/07/08 12:44:02;;;;;;;46.10;21.50;;;;;;;;;;7305243;19;140602;-92
2023/07/08 12:46:30;;;;;;;41.72;21.50;;;;;;;;;;7309801;19;140523;-85
2023/07/08 12:48:57;;;;;;;40.80;20.63;;;;;;;;;;7303705;19;140898;-92
2023/07/08 12:51:25;;;;;;;37.40;21.40;;;;;;;;;;7302475;19;142982;-89
2023/07/08 12:53:53;;;;;;;40.78;21.95;;;;;;;;;;7306332;19;140450;-95
2023/07/08 12:56:23;;;;;;;42.90;21.13;;;;;;;;;;7302920;19;140812;-83
2023/07/08 12:58:52;;;;;;;37.63;19.20;;;;;;;;;;7301336;19;141070;-84
2023/07/08 13:01:20;;;;;;;35.03;18.98;;;;;;;;;;7302801;19;141934;-85
2023/07/08 13:03:49;;;;;;;37.92;20.48;;;;;;;;;;7302255;19;140494;-88
2023/07/08 13:06:18;;;;;;;37.72;18.77;;;;;;;;;;7302905;19;140579;-87
2023/07/08 13:08:46;;;;;;;37.83;19.13;;;;;;;;;;7305680;19;141034;-91
2023/07/08 13:11:14;;;;;;;35.28;18.60;;;;;;;;;;7303460;19;141094;-90
2023/07/08 13:13:53;;;;;;;34.38;18.35;;;;;;;;;;7303730;19;140942;-89
2023/07/08 13:16:29;;;;;;;35.45;17.33;;;;;;;;;;7302929;19;140471;-92
2023/07/08 13:18:57;;;;;;;33.22;17.55;;;;;;;;;;7303481;19;140983;-89
2023/07/08 13:21:27;;;;;;;32.88;17.05;;;;;;;;;;7305448;19;141974;-91
2023/07/08 13:23:54;;;;;;;31.25;16.02;;;;;;;;;;7309590;19;141101;-89
2023/07/08 13:26:22;;;;;;;33.88;16.95;;;;;;;;;;7306025;19;140347;-91
2023/07/08 13:28:58;;;;;;;30.42;16.73;;;;;;;;;;7302343;19;140607;-89
2023/07/08 13:31:31;;;;;;;29.92;15.52;;;;;;;;;;7303330;19;142697;-84
2023/07/08 13:34:05;;;;;;;29.20;15.10;;;;;;;;;;7306116;19;140635;-91
2023/07/08 13:36:39;;;;;;;35.00;15.93;;;;;;;;;;7306479;19;140515;-92
2023/07/08 13:39:08;;;;;;;29.40;15.57;;;;;;;;;;7301906;19;142099;-84
2023/07/08 13:41:35;;;;;;;26.90;14.30;;;;;;;;;;7302298;19;142148;-83
2023/07/08 13:44:04;;;;;;;24.77;14.45;;;;;;;;;;7301694;19;140805;-95
2023/07/08 13:46:38;;;;;;;26.40;14.05;;;;;;;;;;7302631;19;140565;-89
2023/07/08 13:49:13;;;;;;;24.48;12.60;;;;;;;;;;7305088;19;140988;-93
2023/07/08 13:51:42;;;;;;;22.00;12.65;;;;;;;;;;7307737;19;140314;-89
2023/07/08 13:54:13;;;;;;;25.73;12.45;;;;;;;;;;7304499;19;140551;-84
2023/07/08 13:56:41;;;;;;;22.23;12.13;;;;;;;;;;7305204;19;140814;-88
2023/07/08 13:59:09;;;;;;;23.10;11.73;;;;;;;;;;7305958;19;140920;-84
2023/07/08 14:01:38;;;;;;;21.77;12.18;;;;;;;;;;7309095;19;142026;-92
2023/07/08 14:04:06;;;;;;;21.13;12.23;;;;;;;;;;7302025;19;140413;-82
2023/07/08 14:06:37;;;;;;;20.45;11.35;;;;;;;;;;7301975;19;140682;-87
2023/07/08 14:09:10;;;;;;;20.05;11.18;;;;;;;;;;7302717;19;141645;-89
2023/07/08 14:11:37;;;;;;;19.80;10.90;;;;;;;;;;7304093;19;141896;-94
2023/07/08 14:14:04;;;;;;;21.27;10.32;;;;;;;;;;7310414;19;140466;-91
2023/07/08 14:16:33;;;;;;;19.17;10.20;;;;;;;;;;7301036;19;140490;-87
2023/07/08 14:19:03;;;;;;;21.48;9.85;;;;;;;;;;7303883;19;141871;-91
2023/07/08 14:21:30;;;;;;;20.33;9.93;;;;;;;;;;7305499;19;141959;-88
2023/07/08 14:23:57;;;;;;;18.00;10.57;;;;;;;;;;7307224;19;140455;-93
2023/07/08 14:26:24;;;;;;;17.90;9.88;;;;;;;;;;7307386;19;140334;-90
2023/07/08 14:28:52;;;;;;;18.15;9.98;;;;;;;;;;7304391;19;141823;-87
2023/07/08 14:31:20;;;;;;;18.05;9.55;;;;;;;;;;7304419;19;141802;-88
2023/07/08 14:33:48;;;;;;;14.45;8.65;;;;;;;;;;7304820;19;140775;-86
2023/07/08 14:36:15;;;;;;;18.08;8.85;;;;;;;;;;7304190;19;140486;-86
2023/07/08 14:38:42;;;;;;;17.02;8.82;;;;;;;;;;7303096;19;140797;-83
2023/07/08 14:41:09;;;;;;;16.25;8.63;;;;;;;;;;7301953;19;142020;-86
2023/07/08 14:43:39;;;;;;;15.90;8.50;;;;;;;;;;7300071;19;140656;-86
2023/07/08 14:46:09;;;;;;;18.58;8.73;;;;;;;;;;7297989;19;140809;-84